Terminal Aerodrome Forecast
Issued by NWS Albany, NY

Home | Current Version | Previous Version | Text Only | Print | Product List | Glossary On
Versions: 1 2 3 4 5 6 7 8 9 10 11 12 13 14 15 16
000
FTUS41 KALY 250555 CCA
TAFPOU
TAF COR
KPOU 250555Z 2506/2606 VRB03KT P6SM VCSH BKN050 OVC080
     FM251000 04006KT 6SM -RA BKN025 OVC050
     FM251500 05008G16KT 4SM -RA BR OVC015
     FM252100 06010G18KT 2SM -RA BR OVC007
     FM260300 07008KT 3SM -RA BR OVC007=

USA.gov is the U.S. government's official web portal to all federal, state and local government web resources and services.